createdAt,value
2018-03-29T00:00:23.382Z,0.00
2018-03-29T00:01:23.374Z,0.00
2018-03-29T00:02:23.340Z,0.00
2018-03-29T00:03:23.288Z,0.00
2018-03-29T00:04:23.264Z,0.00
2018-03-29T00:05:23.187Z,0.00
2018-03-29T00:06:23.176Z,0.00
2018-03-29T00:07:23.104Z,0.00
2018-03-29T00:08:23.082Z,0.00
2018-03-29T00:09:23.042Z,0.00
2018-03-29T00:10:23.005Z,0.00
2018-03-29T00:11:22.941Z,0.00
2018-03-29T00:12:22.900Z,0.00
2018-03-29T00:13:22.876Z,0.00
2018-03-29T00:14:22.834Z,0.00
2018-03-29T00:15:22.768Z,0.00
2018-03-29T00:16:22.753Z,0.00
2018-03-29T00:17:22.755Z,0.00
2018-03-29T00:18:22.660Z,0.00
2018-03-29T00:19:22.647Z,0.00
2018-03-29T00:20:22.577Z,0.00
2018-03-29T00:21:22.531Z,0.00
2018-03-29T00:22:22.493Z,0.00
2018-03-29T00:23:22.439Z,0.00
2018-03-29T00:24:22.421Z,0.00
2018-03-29T00:25:22.514Z,0.00
2018-03-29T00:26:22.341Z,0.00
2018-03-29T00:27:22.291Z,0.00
2018-03-29T00:28:22.279Z,0.00
2018-03-29T00:29:22.223Z,0.00
2018-03-29T00:30:22.153Z,0.00
2018-03-29T00:31:22.117Z,0.00
2018-03-29T00:32:22.094Z,0.00
2018-03-29T00:33:22.060Z,0.00
2018-03-29T00:34:21.999Z,0.00
2018-03-29T00:35:21.971Z,0.00
2018-03-29T00:36:21.934Z,0.00
2018-03-29T00:37:21.898Z,0.00
2018-03-29T00:38:21.846Z,0.00
2018-03-29T00:39:21.829Z,0.00
2018-03-29T00:40:21.754Z,0.00
2018-03-29T00:41:21.727Z,0.00
2018-03-29T00:42:21.712Z,0.00
2018-03-29T00:43:21.660Z,0.00
2018-03-29T00:44:21.621Z,0.00
2018-03-29T00:45:21.605Z,0.00
2018-03-29T00:46:21.512Z,0.00
2018-03-29T00:47:21.475Z,0.00
2018-03-29T00:48:21.443Z,0.00
2018-03-29T00:49:21.417Z,0.00
2018-03-29T00:50:21.888Z,0.00
2018-03-29T00:51:21.314Z,0.00
2018-03-29T00:52:21.278Z,0.00
2018-03-29T00:53:21.255Z,0.00
2018-03-29T00:54:21.198Z,0.00
2018-03-29T00:55:21.286Z,0.00
2018-03-29T00:56:21.147Z,0.00
2018-03-29T00:57:21.061Z,0.00
2018-03-29T00:58:21.030Z,0.00
2018-03-29T00:59:20.978Z,0.00
2018-03-29T01:00:20.969Z,0.00
2018-03-29T01:01:20.899Z,0.00
2018-03-29T01:02:20.876Z,0.00
2018-03-29T01:03:20.865Z,0.00
2018-03-29T01:04:20.801Z,0.00
2018-03-29T01:05:20.849Z,0.00
2018-03-29T01:06:20.692Z,0.00
2018-03-29T01:07:20.664Z,0.00
2018-03-29T01:08:20.626Z,0.00
2018-03-29T01:09:20.571Z,0.00
2018-03-29T01:10:20.547Z,0.00
2018-03-29T01:11:20.478Z,0.00
2018-03-29T01:12:20.461Z,0.00
2018-03-29T01:13:21.386Z,0.00
2018-03-29T01:14:20.346Z,0.00
2018-03-29T01:15:20.321Z,0.00
2018-03-29T01:16:20.274Z,0.00
2018-03-29T01:17:20.291Z,0.00
2018-03-29T01:18:20.222Z,0.00
2018-03-29T01:19:20.166Z,0.00
2018-03-29T01:20:20.132Z,0.00
2018-03-29T01:21:20.144Z,0.00
2018-03-29T01:22:20.033Z,0.00
2018-03-29T01:23:20.000Z,0.00
2018-03-29T01:24:19.944Z,0.00
2018-03-29T01:25:19.955Z,0.00
2018-03-29T01:26:19.862Z,0.00
2018-03-29T01:27:19.822Z,0.00
2018-03-29T01:28:19.805Z,0.00
2018-03-29T01:29:19.735Z,0.00
2018-03-29T01:30:19.722Z,0.00
2018-03-29T01:31:19.763Z,0.00
2018-03-29T01:32:19.629Z,0.00
2018-03-29T01:33:19.616Z,0.00
2018-03-29T01:34:19.561Z,0.00
2018-03-29T01:35:19.476Z,0.00
2018-03-29T01:36:19.476Z,0.00
2018-03-29T01:37:19.409Z,0.00
2018-03-29T01:38:19.403Z,0.00
2018-03-29T01:39:19.327Z,0.00
2018-03-29T01:40:19.281Z,0.00
2018-03-29T01:41:19.285Z,0.00
2018-03-29T01:42:19.189Z,0.00
2018-03-29T01:43:19.177Z,0.00
2018-03-29T01:44:19.124Z,0.00
2018-03-29T01:45:19.081Z,0.00
2018-03-29T01:46:19.023Z,0.00
2018-03-29T01:47:19.006Z,0.00
2018-03-29T01:48:18.980Z,0.00
2018-03-29T01:49:18.910Z,0.00
2018-03-29T01:50:18.868Z,0.00
2018-03-29T01:51:19.396Z,0.00
2018-03-29T01:52:18.792Z,0.00
2018-03-29T01:53:18.779Z,0.00
2018-03-29T01:54:18.719Z,0.00
2018-03-29T01:55:18.686Z,0.00
2018-03-29T01:56:18.608Z,0.00
2018-03-29T01:57:18.571Z,0.00
2018-03-29T01:58:18.556Z,0.00
2018-03-29T01:59:18.513Z,0.00
2018-03-29T02:00:18.466Z,0.00
2018-03-29T02:01:18.415Z,0.00
2018-03-29T02:02:18.356Z,0.00
2018-03-29T02:03:18.339Z,0.00
2018-03-29T02:04:18.266Z,0.00
2018-03-29T02:05:18.404Z,0.00
2018-03-29T02:06:18.227Z,0.00
2018-03-29T02:07:18.160Z,0.00
2018-03-29T02:08:18.103Z,0.00
2018-03-29T02:09:18.092Z,0.00
2018-03-29T02:10:18.029Z,0.00
2018-03-29T02:11:18.020Z,0.00
2018-03-29T02:12:17.970Z,0.00
2018-03-29T02:13:17.914Z,0.00
2018-03-29T02:14:17.887Z,0.00
2018-03-29T02:15:17.836Z,0.00
2018-03-29T02:16:17.923Z,0.00
2018-03-29T02:17:17.745Z,0.00
2018-03-29T02:18:17.707Z,0.00
2018-03-29T02:19:17.647Z,0.00
2018-03-29T02:20:17.701Z,0.00
2018-03-29T02:21:18.406Z,0.00
2018-03-29T02:22:17.534Z,0.00
2018-03-29T02:23:17.488Z,0.00
2018-03-29T02:24:17.475Z,0.00
2018-03-29T02:25:17.418Z,0.00
2018-03-29T02:26:17.382Z,0.00
2018-03-29T02:27:17.345Z,0.00
2018-03-29T02:28:17.269Z,0.00
2018-03-29T02:29:17.277Z,0.00
2018-03-29T02:30:17.206Z,0.00
2018-03-29T02:31:17.165Z,0.00
2018-03-29T02:32:17.109Z,0.00
2018-03-29T02:33:17.095Z,0.00
2018-03-29T02:34:17.021Z,0.00
2018-03-29T02:35:16.980Z,0.00
2018-03-29T02:36:16.966Z,0.00
2018-03-29T02:37:16.926Z,0.00
2018-03-29T02:38:16.880Z,0.00
2018-03-29T02:39:17.409Z,0.00
2018-03-29T02:40:16.840Z,0.00
2018-03-29T02:41:16.808Z,0.00
2018-03-29T02:42:16.708Z,0.00
2018-03-29T02:43:16.694Z,0.00
2018-03-29T02:44:16.704Z,0.00
2018-03-29T02:45:16.561Z,0.00
2018-03-29T02:46:16.532Z,0.00
2018-03-29T02:47:16.502Z,0.00
2018-03-29T02:48:16.445Z,0.00
2018-03-29T02:49:16.433Z,0.00
2018-03-29T02:50:16.417Z,0.00
2018-03-29T02:51:16.312Z,0.00
2018-03-29T02:52:16.292Z,0.00
2018-03-29T02:53:16.243Z,0.00
2018-03-29T02:54:16.208Z,0.00
2018-03-29T02:55:16.127Z,0.00
2018-03-29T02:56:16.103Z,0.00
2018-03-29T02:57:16.072Z,0.00
2018-03-29T02:58:16.178Z,0.00
2018-03-29T02:59:16.012Z,0.00
2018-03-29T03:00:16.084Z,0.00
2018-03-29T03:01:15.937Z,0.00
2018-03-29T03:02:15.842Z,0.00
2018-03-29T03:03:15.824Z,0.00
2018-03-29T03:04:15.832Z,0.00
2018-03-29T03:05:15.768Z,0.00
2018-03-29T03:06:15.683Z,0.00
2018-03-29T03:07:15.664Z,0.00
2018-03-29T03:08:15.594Z,0.00
2018-03-29T03:09:15.585Z,0.00
2018-03-29T03:10:15.500Z,0.00
2018-03-29T03:11:15.510Z,0.00
2018-03-29T03:12:15.415Z,0.00
2018-03-29T03:13:15.913Z,0.00
2018-03-29T03:14:15.364Z,0.00
2018-03-29T03:15:15.348Z,0.00
2018-03-29T03:16:15.262Z,0.00
2018-03-29T03:17:15.260Z,0.00
2018-03-29T03:18:15.181Z,0.00
2018-03-29T03:19:15.161Z,0.00
2018-03-29T03:20:15.094Z,0.00
2018-03-29T03:21:15.095Z,0.00
2018-03-29T03:22:14.990Z,0.00
2018-03-29T03:23:14.969Z,0.00
2018-03-29T03:24:15.413Z,0.00
2018-03-29T03:25:15.036Z,0.00
2018-03-29T03:26:14.864Z,0.00
2018-03-29T03:27:14.852Z,0.00
2018-03-29T03:28:14.754Z,0.00
2018-03-29T03:29:14.789Z,0.00
2018-03-29T03:30:14.727Z,0.00
2018-03-29T03:31:14.637Z,0.00
2018-03-29T03:32:14.588Z,0.00
2018-03-29T03:33:14.544Z,0.00
2018-03-29T03:34:14.484Z,0.00
2018-03-29T03:35:14.454Z,0.00
2018-03-29T03:36:14.428Z,0.00
2018-03-29T03:37:14.395Z,0.00
2018-03-29T03:38:14.353Z,0.00
2018-03-29T03:39:14.334Z,0.00
2018-03-29T03:40:14.252Z,0.00
2018-03-29T03:41:14.209Z,0.00
2018-03-29T03:42:14.182Z,0.00
2018-03-29T03:43:14.121Z,0.00
2018-03-29T03:44:14.095Z,0.00
2018-03-29T03:45:14.052Z,0.00
2018-03-29T03:46:14.009Z,0.00
2018-03-29T03:47:13.962Z,0.00
2018-03-29T03:48:13.944Z,0.00
2018-03-29T03:49:14.419Z,0.00
2018-03-29T03:50:13.840Z,0.00
2018-03-29T03:51:13.787Z,0.00
2018-03-29T03:52:13.741Z,0.00
2018-03-29T03:53:13.733Z,0.00
2018-03-29T03:54:13.668Z,0.00
2018-03-29T03:55:13.640Z,0.00
2018-03-29T03:56:13.589Z,0.00
2018-03-29T03:57:13.557Z,0.00
2018-03-29T03:58:13.481Z,0.00
2018-03-29T03:59:13.470Z,0.00
2018-03-29T04:00:13.407Z,0.00
2018-03-29T04:01:13.396Z,0.00
2018-03-29T04:02:13.327Z,0.00
2018-03-29T04:03:13.285Z,0.00
2018-03-29T04:04:13.292Z,0.00
2018-03-29T04:05:13.197Z,0.00
2018-03-29T04:06:13.167Z,0.00
2018-03-29T04:07:13.111Z,0.00
2018-03-29T04:08:13.099Z,0.00
2018-03-29T04:09:13.029Z,0.00
2018-03-29T04:10:13.011Z,0.00
2018-03-29T04:11:12.951Z,0.00
2018-03-29T04:12:12.891Z,0.00
2018-03-29T04:13:12.858Z,0.00
2018-03-29T04:14:12.858Z,0.00
2018-03-29T04:15:12.802Z,0.00
2018-03-29T04:16:12.754Z,0.00
2018-03-29T04:17:12.703Z,0.00
2018-03-29T04:18:12.685Z,0.00
2018-03-29T04:19:12.632Z,0.00
2018-03-29T04:20:12.578Z,0.00
2018-03-29T04:21:12.550Z,0.00
2018-03-29T04:22:12.493Z,0.00
2018-03-29T04:23:12.475Z,0.00
2018-03-29T04:24:12.416Z,0.00
2018-03-29T04:25:12.363Z,0.00
2018-03-29T04:26:12.316Z,0.00
2018-03-29T04:27:12.282Z,0.00
2018-03-29T04:28:12.216Z,0.00
2018-03-29T04:29:12.180Z,0.00
2018-03-29T04:30:12.142Z,0.00
2018-03-29T04:31:12.136Z,0.00
2018-03-29T04:32:12.050Z,0.00
2018-03-29T04:33:12.030Z,0.00
2018-03-29T04:34:11.969Z,0.00
2018-03-29T04:35:12.024Z,0.00
2018-03-29T04:36:11.910Z,0.00
2018-03-29T04:37:11.852Z,0.00
2018-03-29T04:38:11.814Z,0.00
2018-03-29T04:39:11.968Z,0.00
2018-03-29T04:40:11.734Z,0.00
2018-03-29T04:41:11.673Z,0.00
2018-03-29T04:42:11.663Z,0.00
2018-03-29T04:43:11.604Z,0.00
2018-03-29T04:44:11.577Z,0.00
2018-03-29T04:45:11.537Z,0.00
2018-03-29T04:46:11.454Z,0.00
2018-03-29T04:47:11.435Z,0.00
2018-03-29T04:48:11.398Z,5.63
2018-03-29T04:49:11.436Z,5.63
2018-03-29T04:50:11.325Z,5.63
2018-03-29T04:51:11.281Z,5.63
2018-03-29T04:52:11.215Z,5.63
2018-03-29T04:53:11.168Z,5.63
2018-03-29T04:54:11.173Z,5.63
2018-03-29T04:55:11.084Z,11.25
2018-03-29T04:56:11.063Z,11.25
2018-03-29T04:57:10.996Z,11.25
2018-03-29T04:58:11.015Z,11.25
2018-03-29T04:59:10.964Z,11.25
2018-03-29T05:00:10.939Z,11.25
2018-03-29T05:01:10.861Z,11.25
2018-03-29T05:02:10.838Z,16.88
2018-03-29T05:03:10.754Z,16.88
2018-03-29T05:04:10.731Z,11.25
2018-03-29T05:05:10.669Z,16.88
2018-03-29T05:06:10.632Z,16.88
2018-03-29T05:07:10.598Z,22.50
2018-03-29T05:08:10.638Z,28.13
2018-03-29T05:09:10.507Z,33.75
2018-03-29T05:10:10.478Z,39.38
2018-03-29T05:11:10.410Z,45.00
2018-03-29T05:12:10.407Z,50.63
2018-03-29T05:13:10.376Z,50.63
2018-03-29T05:14:10.281Z,50.63
2018-03-29T05:15:10.250Z,50.63
2018-03-29T05:16:10.224Z,45.00
2018-03-29T05:17:10.174Z,45.00
2018-03-29T05:18:10.799Z,50.63
2018-03-29T05:19:10.133Z,50.63
2018-03-29T05:20:10.056Z,56.25
2018-03-29T05:23:03.511Z,95.63
2018-03-29T05:24:03.234Z,118.13
2018-03-29T05:25:56.802Z,140.63
2018-03-29T05:26:56.134Z,151.88
2018-03-29T05:28:50.460Z,168.75
2018-03-29T05:29:49.808Z,174.38
2018-03-29T05:31:43.709Z,174.38
2018-03-29T05:32:42.942Z,180.00
2018-03-29T05:34:37.895Z,191.25
2018-03-29T05:35:36.747Z,202.50
2018-03-29T05:37:29.218Z,225.00
2018-03-29T05:38:28.965Z,236.25
2018-03-29T05:40:23.339Z,264.38
2018-03-29T05:41:21.865Z,275.63
2018-03-29T05:43:23.244Z,292.50
2018-03-29T05:44:22.940Z,286.88
2018-03-29T05:46:17.626Z,275.63
2018-03-29T05:47:16.822Z,264.38
2018-03-29T05:49:09.871Z,281.25
2018-03-29T05:50:08.929Z,292.50
2018-03-29T05:52:02.785Z,298.13
2018-03-29T05:53:01.916Z,292.50
2018-03-29T05:54:55.685Z,315.00
2018-03-29T05:55:54.919Z,337.50
2018-03-29T05:57:48.656Z,343.13
2018-03-29T05:58:47.744Z,354.38
2018-03-29T06:00:41.605Z,393.75
2018-03-29T06:01:40.685Z,399.38
2018-03-29T06:03:34.534Z,427.50
2018-03-29T06:04:35.030Z,421.88
2018-03-29T06:06:27.000Z,421.88
2018-03-29T06:07:26.813Z,388.13
2018-03-29T06:08:26.576Z,371.25
2018-03-29T06:09:27.371Z,337.50
2018-03-29T06:10:27.289Z,309.38
2018-03-29T06:11:26.273Z,275.63
2018-03-29T06:12:26.235Z,258.75
2018-03-29T06:13:26.236Z,264.38
2018-03-29T06:14:26.143Z,270.00
2018-03-29T06:15:26.209Z,275.63
2018-03-29T06:16:26.056Z,292.50
2018-03-29T06:17:26.033Z,309.38
2018-03-29T06:18:26.003Z,309.38
2018-03-29T06:19:25.945Z,298.13
2018-03-29T06:20:25.974Z,298.13
2018-03-29T06:21:25.874Z,298.13
2018-03-29T06:22:25.806Z,298.13
2018-03-29T06:23:25.782Z,292.50
2018-03-29T06:24:25.735Z,292.50
2018-03-29T06:25:25.692Z,298.13
2018-03-29T06:26:25.661Z,320.63
2018-03-29T06:27:25.605Z,348.75
2018-03-29T06:28:25.556Z,348.75
2018-03-29T06:29:25.552Z,343.13
2018-03-29T06:30:25.525Z,343.13
2018-03-29T06:31:25.449Z,343.13
2018-03-29T06:32:25.400Z,343.13
2018-03-29T06:33:25.394Z,348.75
2018-03-29T06:34:25.367Z,343.13
2018-03-29T06:35:25.277Z,365.63
2018-03-29T06:36:25.264Z,393.75
2018-03-29T06:37:25.212Z,416.25
2018-03-29T06:38:25.186Z,444.38
2018-03-29T06:39:25.097Z,455.63
2018-03-29T06:40:25.141Z,466.88
2018-03-29T06:41:25.029Z,461.25
2018-03-29T06:42:25.051Z,410.63
2018-03-29T06:43:24.949Z,371.25
2018-03-29T06:44:24.994Z,365.63
2018-03-29T06:45:24.858Z,376.88
2018-03-29T06:46:24.863Z,416.25
2018-03-29T06:47:24.764Z,466.88
2018-03-29T06:48:24.766Z,500.63
2018-03-29T06:49:24.712Z,511.88
2018-03-29T06:50:24.652Z,517.50
2018-03-29T06:51:24.594Z,517.50
2018-03-29T06:52:24.556Z,528.75
2018-03-29T06:53:24.509Z,573.75
2018-03-29T06:54:24.492Z,596.25
2018-03-29T06:55:24.487Z,618.75
2018-03-29T06:56:24.378Z,630.00
2018-03-29T06:57:24.356Z,652.50
2018-03-29T06:58:24.308Z,686.25
2018-03-29T06:59:24.260Z,708.75
2018-03-29T07:00:24.224Z,708.75
2018-03-29T07:01:24.183Z,680.63
2018-03-29T07:02:24.158Z,652.50
2018-03-29T07:03:24.124Z,658.13
2018-03-29T07:04:24.073Z,686.25
2018-03-29T07:05:24.045Z,686.25
2018-03-29T07:06:23.981Z,686.25
2018-03-29T07:07:23.953Z,725.63
2018-03-29T07:08:23.899Z,765.00
2018-03-29T07:09:23.865Z,804.38
2018-03-29T07:10:23.829Z,832.50
2018-03-29T07:11:23.783Z,843.75
2018-03-29T07:12:23.739Z,843.75
2018-03-29T07:13:23.708Z,860.63
2018-03-29T07:14:23.649Z,855.00
2018-03-29T07:15:23.610Z,855.00
2018-03-29T07:16:23.577Z,826.88
2018-03-29T07:17:23.517Z,776.25
2018-03-29T07:18:23.497Z,736.88
2018-03-29T07:19:23.425Z,748.13
2018-03-29T07:20:23.433Z,753.75
2018-03-29T07:21:23.413Z,765.00
2018-03-29T07:22:23.311Z,810.00
2018-03-29T07:23:23.274Z,877.50
2018-03-29T07:24:23.252Z,945.00
2018-03-29T07:25:23.225Z,984.38
2018-03-29T07:26:23.159Z,1029.38
2018-03-29T07:27:23.154Z,1035.00
2018-03-29T07:28:23.123Z,1057.50
2018-03-29T07:29:23.064Z,1085.63
2018-03-29T07:30:23.017Z,1085.63
2018-03-29T07:31:22.988Z,1068.75
2018-03-29T07:32:22.951Z,1113.75
2018-03-29T07:33:22.852Z,1209.38
2018-03-29T07:34:22.817Z,1293.75
2018-03-29T07:35:22.799Z,1350.00
2018-03-29T07:36:22.754Z,1372.50
2018-03-29T07:37:22.729Z,1372.50
2018-03-29T07:38:23.306Z,1417.50
2018-03-29T07:39:22.631Z,1456.88
2018-03-29T07:40:22.591Z,1473.75
2018-03-29T07:41:22.689Z,1530.00
2018-03-29T07:42:22.506Z,1513.13
2018-03-29T07:43:22.478Z,1546.88
2018-03-29T07:44:22.888Z,1608.75
2018-03-29T07:45:22.400Z,1670.63
2018-03-29T07:46:22.395Z,1676.25
2018-03-29T07:47:22.308Z,1653.75
2018-03-29T07:48:22.295Z,2497.50
2018-03-29T07:49:22.314Z,2368.13
2018-03-29T07:50:22.211Z,3093.75
2018-03-29T07:51:22.139Z,2323.13
2018-03-29T07:52:22.134Z,3060.00
2018-03-29T07:53:22.078Z,2469.38
2018-03-29T07:54:22.054Z,1473.75
2018-03-29T07:55:22.011Z,3285.00
2018-03-29T07:56:21.952Z,3110.63
2018-03-29T07:57:22.069Z,3003.75
2018-03-29T07:58:21.907Z,2002.50
2018-03-29T07:59:21.859Z,2289.38
2018-03-29T08:00:21.832Z,3268.13
2018-03-29T08:01:21.785Z,3301.88
2018-03-29T08:02:21.749Z,1411.88
2018-03-29T08:03:21.734Z,1383.75
2018-03-29T08:04:21.703Z,1372.50
2018-03-29T08:05:21.669Z,1749.38
2018-03-29T08:06:21.622Z,1597.50
2018-03-29T08:07:21.594Z,1828.13
2018-03-29T08:08:21.574Z,1890.00
2018-03-29T08:09:21.559Z,1693.13
2018-03-29T08:10:21.508Z,1659.38
2018-03-29T08:11:21.477Z,1597.50
2018-03-29T08:12:21.433Z,1513.13
2018-03-29T08:13:21.417Z,1153.13
2018-03-29T08:14:21.354Z,1153.13
2018-03-29T08:15:21.329Z,1248.75
2018-03-29T08:16:21.390Z,1327.50
2018-03-29T08:17:21.256Z,1383.75
2018-03-29T08:18:21.236Z,1366.88
2018-03-29T08:19:21.217Z,1231.88
2018-03-29T08:20:21.201Z,1102.50
2018-03-29T08:21:21.176Z,894.38
2018-03-29T08:22:21.094Z,939.38
2018-03-29T08:23:21.054Z,1063.13
2018-03-29T08:24:21.029Z,1164.38
2018-03-29T08:25:21.011Z,1164.38
2018-03-29T08:26:20.980Z,1141.88
2018-03-29T08:27:20.906Z,1130.63
2018-03-29T08:28:20.886Z,1085.63
2018-03-29T08:29:20.839Z,1035.00
2018-03-29T08:30:20.852Z,1074.38
2018-03-29T08:31:20.763Z,1186.88
2018-03-29T08:32:20.745Z,1265.63
2018-03-29T08:33:20.754Z,1226.25
2018-03-29T08:34:20.677Z,1164.38
2018-03-29T08:35:20.612Z,1136.25
2018-03-29T08:36:20.576Z,1119.38
2018-03-29T08:37:20.529Z,1119.38
2018-03-29T08:38:20.526Z,1175.63
2018-03-29T08:39:20.482Z,1260.00
2018-03-29T08:40:20.428Z,1338.75
2018-03-29T08:41:20.421Z,1468.13
2018-03-29T08:42:20.366Z,1603.13
2018-03-29T08:43:20.355Z,1726.88
2018-03-29T08:44:20.327Z,1935.00
2018-03-29T08:45:20.259Z,1558.13
2018-03-29T08:46:20.246Z,1417.50
2018-03-29T08:47:20.178Z,1389.38
2018-03-29T08:48:20.131Z,1350.00
2018-03-29T08:49:20.087Z,1288.13
2018-03-29T08:50:20.044Z,1254.38
2018-03-29T08:51:20.042Z,1271.25
2018-03-29T08:52:20.030Z,1316.25
2018-03-29T08:53:19.949Z,1378.13
2018-03-29T08:54:19.929Z,1428.75
2018-03-29T08:55:19.860Z,1501.88
2018-03-29T08:56:19.934Z,1552.50
2018-03-29T08:57:19.779Z,1546.88
2018-03-29T08:58:19.758Z,1535.63
2018-03-29T08:59:19.729Z,1496.25
2018-03-29T09:00:19.682Z,1473.75
2018-03-29T09:01:19.661Z,1395.00
2018-03-29T09:02:19.616Z,1479.38
2018-03-29T09:03:19.558Z,1389.38
2018-03-29T09:04:19.531Z,1395.00
2018-03-29T09:05:19.544Z,1451.25
2018-03-29T09:06:19.482Z,1687.50
2018-03-29T09:07:19.422Z,1524.38
2018-03-29T09:08:19.422Z,1603.13
2018-03-29T09:09:19.325Z,1726.88
2018-03-29T09:10:19.329Z,1929.38
2018-03-29T09:11:19.252Z,2030.63
2018-03-29T09:12:19.218Z,2514.38
2018-03-29T09:13:19.177Z,1732.50
2018-03-29T09:14:19.228Z,1715.63
2018-03-29T09:15:19.099Z,1743.75
2018-03-29T09:16:19.100Z,1591.88
2018-03-29T09:17:19.028Z,1563.75
2018-03-29T09:18:19.000Z,1642.50
2018-03-29T09:19:18.959Z,1580.63
2018-03-29T09:20:18.916Z,1479.38
2018-03-29T09:21:18.923Z,1203.75
2018-03-29T09:22:18.872Z,1125.00
2018-03-29T09:23:18.838Z,1164.38
2018-03-29T09:24:18.783Z,1220.63
2018-03-29T09:25:18.741Z,1226.25
2018-03-29T09:26:18.736Z,1254.38
2018-03-29T09:27:18.731Z,1400.63
2018-03-29T09:28:18.649Z,2666.25
2018-03-29T09:29:18.654Z,1395.00
2018-03-29T09:30:18.580Z,1462.50
2018-03-29T09:31:18.523Z,2053.13
2018-03-29T09:32:18.540Z,1794.38
2018-03-29T09:33:18.469Z,1929.38
2018-03-29T09:34:18.437Z,2008.13
2018-03-29T09:35:18.407Z,2013.75
2018-03-29T09:36:18.328Z,2075.63
2018-03-29T09:37:18.430Z,1996.88
2018-03-29T09:38:18.259Z,1906.88
2018-03-29T09:39:18.210Z,1923.75
2018-03-29T09:40:18.198Z,2154.38
2018-03-29T09:41:18.142Z,2221.88
2018-03-29T09:42:18.139Z,2610.00
2018-03-29T09:43:18.070Z,2401.88
2018-03-29T09:44:18.036Z,2565.00
2018-03-29T09:45:18.018Z,2480.63
2018-03-29T09:46:17.992Z,2722.50
2018-03-29T09:47:17.956Z,2171.25
2018-03-29T09:48:17.902Z,1794.38
2018-03-29T09:49:17.860Z,1681.88
2018-03-29T09:50:17.835Z,1676.25
2018-03-29T09:51:17.797Z,1653.75
2018-03-29T09:52:17.745Z,1693.13
2018-03-29T09:53:17.712Z,1743.75
2018-03-29T09:54:17.663Z,1710.00
2018-03-29T09:55:17.682Z,1580.63
2018-03-29T09:56:17.606Z,1451.25
2018-03-29T09:57:17.583Z,1411.88
2018-03-29T09:58:17.525Z,1383.75
2018-03-29T09:59:17.499Z,1406.25
2018-03-29T10:00:17.449Z,1451.25
2018-03-29T10:01:17.424Z,1395.00
2018-03-29T10:02:17.393Z,1321.88
2018-03-29T10:03:17.355Z,1288.13
2018-03-29T10:04:17.309Z,1271.25
2018-03-29T10:05:17.298Z,1310.63
2018-03-29T10:06:17.254Z,1411.88
2018-03-29T10:07:17.222Z,1541.25
2018-03-29T10:08:17.163Z,1755.00
2018-03-29T10:09:17.152Z,1912.50
2018-03-29T10:10:17.091Z,2002.50
2018-03-29T10:11:17.043Z,1985.63
2018-03-29T10:12:17.018Z,1968.75
2018-03-29T10:13:16.973Z,1878.75
2018-03-29T10:14:16.942Z,1715.63
2018-03-29T10:15:16.917Z,1620.00
2018-03-29T10:16:16.874Z,1620.00
2018-03-29T10:17:16.840Z,1743.75
2018-03-29T10:18:16.791Z,1839.38
2018-03-29T10:19:16.765Z,1968.75
2018-03-29T10:20:16.703Z,2238.75
2018-03-29T10:21:16.684Z,3003.75
2018-03-29T10:22:16.808Z,2255.63
2018-03-29T10:23:16.599Z,2278.13
2018-03-29T10:24:17.374Z,2278.13
2018-03-29T10:25:16.545Z,2041.88
2018-03-29T10:26:16.532Z,1974.38
2018-03-29T10:27:16.474Z,1940.63
2018-03-29T10:28:16.440Z,2615.63
2018-03-29T10:29:16.406Z,2930.63
2018-03-29T10:30:16.389Z,4230.00
2018-03-29T10:31:16.318Z,4050.00
2018-03-29T10:32:16.338Z,5518.13
2018-03-29T10:33:16.249Z,5467.50
2018-03-29T10:34:16.197Z,3746.25
2018-03-29T10:35:16.206Z,4775.63
2018-03-29T10:36:16.144Z,3566.25
2018-03-29T10:37:16.096Z,3560.63
2018-03-29T10:38:16.060Z,4803.75
2018-03-29T10:39:16.027Z,4398.75
2018-03-29T10:40:15.999Z,3442.50
2018-03-29T10:41:16.042Z,4798.13
2018-03-29T10:42:15.934Z,2418.75
2018-03-29T10:43:15.899Z,2221.88
2018-03-29T10:44:15.876Z,1957.50
2018-03-29T10:45:15.858Z,1923.75
2018-03-29T10:46:15.837Z,1839.38
2018-03-29T10:47:15.805Z,1546.88
2018-03-29T10:48:15.797Z,1344.38
2018-03-29T10:49:15.763Z,1282.50
2018-03-29T10:50:15.733Z,1293.75
2018-03-29T10:51:15.684Z,1248.75
2018-03-29T10:52:15.656Z,1170.00
2018-03-29T10:53:15.570Z,1113.75
2018-03-29T10:54:15.542Z,1102.50
2018-03-29T10:55:15.502Z,1158.75
2018-03-29T10:56:15.469Z,1192.50
2018-03-29T10:57:15.439Z,1164.38
2018-03-29T10:58:15.401Z,1158.75
2018-03-29T10:59:15.392Z,1243.13
2018-03-29T11:00:15.329Z,1366.88
2018-03-29T11:01:15.394Z,1411.88
2018-03-29T11:02:15.251Z,1361.25
2018-03-29T11:03:15.268Z,1248.75
2018-03-29T11:04:15.211Z,1136.25
2018-03-29T11:05:15.147Z,1141.88
2018-03-29T11:06:15.156Z,1276.88
2018-03-29T11:07:15.086Z,1400.63
2018-03-29T11:08:15.046Z,1501.88
2018-03-29T11:09:15.015Z,1625.63
2018-03-29T11:10:14.972Z,1710.00
2018-03-29T11:11:14.939Z,1681.88
2018-03-29T11:12:14.906Z,1693.13
2018-03-29T11:13:14.885Z,1828.13
2018-03-29T11:14:14.844Z,2002.50
2018-03-29T11:15:14.809Z,2160.00
2018-03-29T11:16:14.776Z,3802.50
2018-03-29T11:17:14.716Z,2761.88
2018-03-29T11:18:14.675Z,2368.13
2018-03-29T11:19:14.647Z,2244.38
2018-03-29T11:20:14.615Z,2154.38
2018-03-29T11:21:14.577Z,2019.38
2018-03-29T11:22:14.568Z,1906.88
2018-03-29T11:23:14.500Z,1833.75
2018-03-29T11:24:14.474Z,1738.13
2018-03-29T11:25:14.454Z,1636.88
2018-03-29T11:26:14.410Z,1580.63
2018-03-29T11:27:14.349Z,1636.88
2018-03-29T11:28:14.325Z,1738.13
2018-03-29T11:29:14.281Z,1816.88
2018-03-29T11:30:14.275Z,1957.50
2018-03-29T11:31:14.212Z,2941.88
2018-03-29T11:32:14.189Z,2446.88
2018-03-29T11:33:14.163Z,2008.13
2018-03-29T11:34:14.147Z,1833.75
2018-03-29T11:35:14.173Z,1771.88
2018-03-29T11:36:14.036Z,1456.88
2018-03-29T11:37:14.027Z,1321.88
2018-03-29T11:38:14.010Z,1254.38
2018-03-29T11:39:13.968Z,1276.88
2018-03-29T11:40:13.921Z,1350.00
2018-03-29T11:41:13.879Z,1372.50
2018-03-29T11:42:14.376Z,1395.00
2018-03-29T11:43:13.797Z,1451.25
2018-03-29T11:44:13.747Z,1501.88
2018-03-29T11:45:13.718Z,1541.25
2018-03-29T11:46:13.696Z,1597.50
2018-03-29T11:47:13.701Z,1642.50
2018-03-29T11:48:13.605Z,1710.00
2018-03-29T11:49:13.577Z,1777.50
2018-03-29T11:50:13.584Z,1833.75
2018-03-29T11:51:13.514Z,1811.25
2018-03-29T11:52:13.461Z,1771.88
2018-03-29T11:53:13.427Z,1749.38
2018-03-29T11:54:13.396Z,1738.13
2018-03-29T11:55:13.365Z,1726.88
2018-03-29T11:56:13.332Z,1760.63
2018-03-29T11:57:13.299Z,1766.25
2018-03-29T11:58:13.265Z,1738.13
2018-03-29T11:59:13.239Z,1710.00
2018-03-29T12:00:13.180Z,1698.75
2018-03-29T12:01:13.161Z,1721.25
2018-03-29T12:02:13.114Z,1805.63
2018-03-29T12:03:13.078Z,1777.50
2018-03-29T12:04:13.116Z,1760.63
2018-03-29T12:05:12.993Z,1687.50
2018-03-29T12:06:12.965Z,1631.25
2018-03-29T12:07:12.919Z,1530.00
2018-03-29T12:08:12.880Z,1462.50
2018-03-29T12:09:12.917Z,1468.13
2018-03-29T12:10:12.822Z,1614.38
2018-03-29T12:11:12.793Z,1901.25
2018-03-29T12:12:12.761Z,5585.63
2018-03-29T12:13:12.727Z,3251.25
2018-03-29T12:14:12.673Z,2430.00
2018-03-29T12:15:12.711Z,2778.75
2018-03-29T12:16:12.616Z,3526.88
2018-03-29T12:17:12.592Z,3228.75
2018-03-29T12:18:12.594Z,2671.88
2018-03-29T12:19:12.499Z,2716.88
2018-03-29T12:20:12.493Z,2244.38
2018-03-29T12:21:12.425Z,2075.63
2018-03-29T12:22:12.409Z,1951.88
2018-03-29T12:23:12.366Z,1771.88
2018-03-29T12:24:12.324Z,1586.25
2018-03-29T12:25:12.276Z,1423.13
2018-03-29T12:26:12.271Z,1293.75
2018-03-29T12:27:12.227Z,1181.25
2018-03-29T12:28:12.187Z,1085.63
2018-03-29T12:29:12.150Z,1029.38
2018-03-29T12:30:12.109Z,1040.63
2018-03-29T12:31:12.180Z,1085.63
2018-03-29T12:32:12.035Z,1125.00
2018-03-29T12:33:12.034Z,1119.38
2018-03-29T12:34:11.996Z,1096.88
2018-03-29T12:35:11.944Z,1091.25
2018-03-29T12:36:11.947Z,1119.38
2018-03-29T12:37:11.888Z,1158.75
2018-03-29T12:38:11.891Z,1198.13
2018-03-29T12:39:11.817Z,1243.13
2018-03-29T12:40:11.790Z,1321.88
2018-03-29T12:41:11.726Z,1383.75
2018-03-29T12:42:11.703Z,1361.25
2018-03-29T12:43:11.666Z,1299.38
2018-03-29T12:44:11.625Z,1209.38
2018-03-29T12:45:11.583Z,1141.88
2018-03-29T12:46:11.541Z,1102.50
2018-03-29T12:47:11.515Z,1057.50
2018-03-29T12:48:11.482Z,1012.50
2018-03-29T12:49:11.450Z,950.63
2018-03-29T12:50:11.408Z,888.75
2018-03-29T12:51:11.372Z,826.88
2018-03-29T12:52:11.360Z,770.63